createdAt,value
2022-11-24T00:00:02.253Z,89.56
2022-11-24T00:03:08.436Z,89.66
2022-11-24T00:06:13.186Z,89.81
2022-11-24T00:09:15.536Z,89.07
2022-11-24T00:12:17.988Z,89.73
2022-11-24T00:15:20.382Z,90.07
2022-11-24T00:18:22.733Z,89.33
2022-11-24T00:21:26.204Z,88.60
2022-11-24T00:24:28.627Z,88.48
2022-11-24T00:27:31.024Z,88.27
2022-11-24T00:30:36.517Z,87.43
2022-11-24T00:33:38.888Z,87.63
2022-11-24T00:36:42.054Z,87.54
2022-11-24T00:39:44.379Z,87.69
2022-11-24T00:42:46.753Z,87.76
2022-11-24T00:45:49.220Z,88.35
2022-11-24T00:48:52.167Z,88.66
2022-11-24T00:51:54.532Z,88.88
2022-11-24T00:54:56.870Z,88.31
2022-11-24T00:57:59.303Z,87.58
2022-11-24T01:01:07.073Z,87.34
2022-11-24T01:04:09.616Z,87.58
2022-11-24T01:07:11.994Z,87.92
2022-11-24T01:10:14.798Z,88.54
2022-11-24T01:13:17.462Z,87.52
2022-11-24T01:16:22.874Z,87.59
2022-11-24T01:19:25.326Z,88.24
2022-11-24T01:22:27.965Z,87.85
2022-11-24T01:25:30.338Z,87.57
2022-11-24T01:28:32.979Z,88.11
2022-11-24T01:31:36.979Z,87.71
2022-11-24T01:34:39.407Z,87.52
2022-11-24T01:37:41.768Z,88.53
2022-11-24T01:40:44.406Z,88.31
2022-11-24T01:43:47.083Z,88.68
2022-11-24T01:46:53.315Z,87.45
2022-11-24T01:49:58.698Z,87.68
2022-11-24T01:53:01.187Z,87.47
2022-11-24T01:56:04.315Z,87.70
2022-11-24T01:59:08.014Z,87.89
2022-11-24T02:02:11.066Z,88.50
2022-11-24T02:05:31.186Z,88.28
2022-11-24T02:08:49.177Z,87.93
2022-11-24T02:11:53.829Z,88.04
2022-11-24T02:14:56.414Z,87.54
2022-11-24T02:17:59.163Z,88.21
2022-11-24T02:21:01.573Z,88.09
2022-11-24T02:24:14.793Z,87.66
2022-11-24T02:27:17.396Z,86.28
2022-11-24T02:30:19.851Z,87.58
2022-11-24T02:33:22.336Z,87.42
2022-11-24T02:36:24.841Z,87.60
2022-11-24T02:39:27.390Z,87.42
2022-11-24T02:42:34.725Z,87.37
2022-11-24T02:45:37.056Z,87.89
2022-11-24T02:48:39.928Z,88.08
2022-11-24T02:51:42.341Z,87.59
2022-11-24T02:54:44.723Z,88.29
2022-11-24T02:57:47.257Z,88.07
2022-11-24T03:00:49.974Z,88.13
2022-11-24T03:03:52.389Z,88.74
2022-11-24T03:06:54.885Z,88.95
2022-11-24T03:09:57.225Z,88.74
2022-11-24T03:12:59.614Z,89.18
2022-11-24T03:16:02.102Z,89.30
2022-11-24T03:19:05.017Z,89.28
2022-11-24T03:22:07.439Z,89.25
2022-11-24T03:25:10.007Z,88.61
2022-11-24T03:28:12.398Z,88.11
2022-11-24T03:31:14.817Z,88.29
2022-11-24T03:34:17.203Z,87.73
2022-11-24T03:37:19.569Z,88.57
2022-11-24T03:40:22.403Z,87.60
2022-11-24T03:43:24.931Z,88.24
2022-11-24T03:46:27.286Z,87.87
2022-11-24T03:49:29.723Z,87.63
2022-11-24T03:52:32.076Z,87.29
2022-11-24T03:55:34.483Z,88.29
2022-11-24T03:58:36.936Z,87.35
2022-11-24T04:01:39.866Z,87.64
2022-11-24T04:04:45.828Z,86.66
2022-11-24T04:07:50.939Z,87.27
2022-11-24T04:10:54.149Z,87.72
2022-11-24T04:13:56.539Z,87.52
2022-11-24T04:16:58.927Z,88.55
2022-11-24T04:20:08.835Z,89.85
2022-11-24T04:23:11.395Z,90.99
2022-11-24T04:26:14.375Z,91.27
2022-11-24T04:29:16.690Z,91.78
2022-11-24T04:32:19.014Z,91.81
2022-11-24T04:35:21.500Z,92.37
2022-11-24T04:39:23.940Z,92.22
2022-11-24T04:41:47.728Z,92.42
2022-11-24T04:44:50.235Z,92.57
2022-11-24T04:47:52.585Z,92.54
2022-11-24T04:50:55.102Z,92.74
2022-11-24T04:53:57.430Z,92.71
2022-11-24T04:56:59.794Z,92.25
2022-11-24T05:00:02.173Z,91.97
2022-11-24T05:03:05.275Z,91.90
2022-11-24T05:06:08.922Z,92.28
2022-11-24T05:09:14.925Z,92.92
2022-11-24T05:12:17.789Z,92.26
2022-11-24T05:15:20.186Z,91.58
2022-11-24T05:18:22.664Z,92.05
2022-11-24T05:21:25.036Z,91.47
2022-11-24T05:24:27.414Z,91.87
2022-11-24T05:27:29.787Z,91.26
2022-11-24T05:30:32.695Z,92.21
2022-11-24T05:33:35.313Z,91.94
2022-11-24T05:36:52.942Z,92.57
2022-11-24T05:39:55.432Z,91.56
2022-11-24T05:42:57.874Z,92.51
2022-11-24T05:46:01.308Z,91.84
2022-11-24T05:49:03.791Z,92.20
2022-11-24T05:52:06.713Z,92.00
2022-11-24T05:55:10.889Z,91.32
2022-11-24T05:58:13.314Z,91.57
2022-11-24T06:01:15.715Z,91.50
2022-11-24T06:04:18.091Z,91.32
2022-11-24T06:07:20.791Z,90.50
2022-11-24T06:10:26.673Z,91.46
2022-11-24T06:13:29.169Z,90.58
2022-11-24T06:16:31.731Z,91.69
2022-11-24T06:19:37.460Z,92.05
2022-11-24T06:22:44.094Z,91.54
2022-11-24T06:25:51.413Z,91.23
2022-11-24T06:28:54.023Z,91.20
2022-11-24T06:31:56.585Z,91.24
2022-11-24T06:34:59.116Z,91.20
2022-11-24T06:38:01.582Z,91.45
2022-11-24T06:41:06.525Z,91.31
2022-11-24T06:44:08.983Z,91.27
2022-11-24T06:47:11.405Z,91.73
2022-11-24T06:50:16.237Z,91.96
2022-11-24T06:53:19.065Z,91.98
2022-11-24T06:56:21.597Z,92.15
2022-11-24T06:59:24.205Z,92.18
2022-11-24T07:02:26.833Z,92.19
2022-11-24T07:05:29.327Z,91.73
2022-11-24T07:08:31.972Z,91.38
2022-11-24T07:11:36.828Z,92.76
2022-11-24T07:14:39.408Z,91.40
2022-11-24T07:17:42.105Z,91.60
2022-11-24T07:20:44.696Z,91.33
2022-11-24T07:23:55.686Z,91.13
2022-11-24T07:26:58.220Z,90.66
2022-11-24T07:30:00.785Z,91.40
2022-11-24T07:33:03.857Z,90.31
2022-11-24T07:36:07.473Z,89.87
2022-11-24T07:39:10.026Z,90.13
2022-11-24T07:42:12.547Z,90.47
2022-11-24T07:45:15.635Z,90.01
2022-11-24T07:48:18.094Z,90.32
2022-11-24T07:51:20.877Z,91.10
2022-11-24T07:54:23.339Z,90.89
2022-11-24T07:57:25.758Z,90.64
2022-11-24T08:00:28.412Z,90.52
2022-11-24T08:03:30.941Z,91.04
2022-11-24T08:06:39.730Z,90.73
2022-11-24T08:09:45.767Z,90.29
2022-11-24T08:12:48.169Z,90.12
2022-11-24T08:15:51.107Z,90.25
2022-11-24T08:18:55.055Z,90.61
2022-11-24T08:21:57.670Z,91.56
2022-11-24T08:25:00.054Z,91.73
2022-11-24T08:28:04.195Z,90.68
2022-11-24T08:31:21.220Z,90.54
2022-11-24T08:34:25.032Z,90.56
2022-11-24T08:37:29.419Z,90.92
2022-11-24T08:40:33.439Z,91.09
2022-11-24T08:43:36.108Z,90.77
2022-11-24T08:46:39.004Z,91.58
2022-11-24T08:49:42.261Z,91.69
2022-11-24T08:52:44.827Z,91.86
2022-11-24T08:55:47.292Z,92.66
2022-11-24T08:58:49.808Z,92.33
2022-11-24T09:01:52.691Z,92.29
2022-11-24T09:04:55.158Z,92.32
2022-11-24T09:07:58.268Z,92.44
2022-11-24T09:11:05.311Z,92.45
2022-11-24T09:14:07.893Z,91.98
2022-11-24T09:17:10.337Z,92.94
2022-11-24T09:20:12.965Z,92.07
2022-11-24T09:23:15.505Z,92.38
2022-11-24T09:26:21.073Z,91.17
2022-11-24T09:29:23.676Z,91.06
2022-11-24T09:32:26.428Z,91.07
2022-11-24T09:35:29.012Z,91.46
2022-11-24T09:38:32.061Z,90.85
2022-11-24T09:41:40.379Z,91.58
2022-11-24T09:45:07.368Z,90.95
2022-11-24T09:48:33.986Z,91.28
2022-11-24T09:51:37.576Z,91.72
2022-11-24T09:54:56.081Z,91.06
2022-11-24T09:58:32.981Z,90.77
2022-11-24T10:01:40.335Z,90.93
2022-11-24T10:04:46.368Z,90.58
2022-11-24T10:08:08.690Z,90.06
2022-11-24T10:11:22.013Z,89.89
2022-11-24T10:14:51.326Z,88.79
2022-11-24T10:18:17.477Z,89.59
2022-11-24T10:21:36.857Z,90.03
2022-11-24T10:25:07.250Z,89.30
2022-11-24T10:28:14.504Z,90.07
2022-11-24T10:31:33.373Z,89.49
2022-11-24T10:34:57.128Z,90.03
2022-11-24T10:38:31.497Z,89.89
2022-11-24T10:41:58.827Z,89.54
2022-11-24T10:45:06.971Z,89.66
2022-11-24T10:48:30.821Z,90.21
2022-11-24T10:51:48.522Z,89.67
2022-11-24T10:54:59.146Z,88.99
2022-11-24T10:58:15.789Z,89.42
2022-11-24T11:01:21.635Z,90.37
2022-11-24T11:04:32.092Z,90.46
2022-11-24T11:07:38.890Z,90.23
2022-11-24T11:10:44.961Z,90.50
2022-11-24T11:14:04.618Z,90.42
2022-11-24T11:17:37.016Z,91.09
2022-11-24T11:20:41.268Z,90.95
2022-11-24T11:23:46.484Z,92.09
2022-11-24T11:27:06.085Z,91.18
2022-11-24T11:34:10.658Z,91.25
2022-11-24T11:37:20.438Z,91.09
2022-11-24T11:40:29.293Z,90.85
2022-11-24T11:43:35.283Z,90.86
2022-11-24T11:46:38.279Z,91.27
2022-11-24T11:49:41.429Z,90.66
2022-11-24T11:52:59.576Z,90.88
2022-11-24T11:56:17.251Z,90.21
2022-11-24T11:59:59.163Z,89.83
2022-11-24T12:03:23.487Z,89.82
2022-11-24T12:07:03.613Z,89.05
2022-11-24T12:10:15.190Z,89.34
2022-11-24T12:13:40.857Z,88.89
2022-11-24T12:17:05.003Z,88.96
2022-11-24T12:20:23.371Z,88.85
2022-11-24T12:23:48.812Z,88.67
2022-11-24T12:26:55.826Z,88.13
2022-11-24T12:29:58.375Z,88.12
2022-11-24T12:33:29.874Z,88.57
2022-11-24T12:36:47.287Z,87.77
2022-11-24T12:40:03.943Z,88.21
2022-11-24T12:43:24.674Z,88.25
2022-11-24T12:46:53.540Z,88.76
2022-11-24T12:50:07.174Z,88.97
2022-11-24T12:53:16.908Z,88.31
2022-11-24T12:56:28.235Z,88.21
2022-11-24T12:59:35.264Z,88.63
2022-11-24T13:02:52.936Z,87.93
2022-11-24T13:06:11.295Z,88.89
2022-11-24T13:09:15.519Z,89.04
2022-11-24T13:12:18.031Z,89.00
2022-11-24T13:15:44.645Z,88.45
2022-11-24T13:18:47.856Z,87.82
2022-11-24T13:22:01.139Z,88.14
2022-11-24T13:25:16.079Z,87.88
2022-11-24T13:29:12.942Z,88.17
2022-11-24T13:32:23.490Z,88.93
2022-11-24T13:35:26.241Z,89.21
2022-11-24T13:38:44.346Z,89.17
2022-11-24T13:41:49.940Z,89.81
2022-11-24T13:44:54.485Z,88.95
2022-11-24T13:47:56.904Z,88.59
2022-11-24T13:51:00.674Z,88.94
2022-11-24T13:54:03.262Z,88.72
2022-11-24T13:57:38.367Z,89.56
2022-11-24T14:01:35.163Z,89.97
2022-11-24T14:04:39.570Z,89.57
2022-11-24T14:07:44.437Z,89.27
2022-11-24T14:10:47.312Z,88.95
2022-11-24T14:13:49.821Z,89.27
2022-11-24T14:17:14.591Z,90.11
2022-11-24T14:20:24.156Z,90.23
2022-11-24T14:23:26.880Z,89.01
2022-11-24T14:26:36.553Z,89.38
2022-11-24T14:29:54.168Z,89.11
2022-11-24T14:32:58.571Z,88.95
2022-11-24T14:36:01.001Z,89.21
2022-11-24T14:39:04.063Z,88.21
2022-11-24T14:42:19.861Z,89.66
2022-11-24T14:45:22.297Z,89.42
2022-11-24T14:48:49.358Z,89.71
2022-11-24T14:52:02.881Z,88.83
2022-11-24T14:55:21.735Z,89.05
2022-11-24T14:58:30.903Z,89.66
2022-11-24T15:01:34.855Z,89.70
2022-11-24T15:05:02.565Z,90.93
2022-11-24T15:08:06.097Z,89.58
2022-11-24T15:11:09.001Z,90.56
2022-11-24T15:14:31.157Z,90.22
2022-11-24T15:17:33.888Z,91.36
2022-11-24T15:20:41.718Z,90.36
2022-11-24T15:24:04.741Z,90.69
2022-11-24T15:27:07.365Z,90.41
2022-11-24T15:30:12.534Z,90.63
2022-11-24T15:33:18.959Z,90.81
2022-11-24T15:36:21.352Z,91.11
2022-11-24T15:39:23.910Z,91.36
2022-11-24T15:42:26.423Z,91.77
2022-11-24T15:45:28.864Z,91.74
2022-11-24T15:48:31.796Z,91.30
2022-11-24T15:51:35.739Z,91.17
2022-11-24T15:54:38.277Z,90.73
2022-11-24T15:57:40.719Z,91.18
2022-11-24T16:00:43.826Z,90.97
2022-11-24T16:03:48.336Z,91.04
2022-11-24T16:06:51.312Z,90.38
2022-11-24T16:09:53.875Z,89.71
2022-11-24T16:12:56.377Z,90.02
2022-11-24T16:15:58.824Z,91.16
2022-11-24T16:19:01.574Z,90.34
2022-11-24T16:22:06.536Z,90.44
2022-11-24T16:25:09.430Z,90.20
2022-11-24T16:28:11.884Z,90.25
2022-11-24T16:31:16.218Z,90.42
2022-11-24T16:34:19.068Z,90.69
2022-11-24T16:37:21.789Z,90.18
2022-11-24T16:40:24.367Z,90.96
2022-11-24T16:43:28.894Z,90.70
2022-11-24T16:46:31.359Z,91.26
2022-11-24T16:49:34.018Z,90.41
2022-11-24T16:52:37.563Z,90.93
2022-11-24T16:55:39.960Z,90.79
2022-11-24T16:58:42.676Z,91.64
2022-11-24T17:01:46.661Z,92.26
2022-11-24T17:04:52.305Z,91.59
2022-11-24T17:07:54.743Z,91.25
2022-11-24T17:10:57.605Z,91.16
2022-11-24T17:14:00.104Z,91.01
2022-11-24T17:17:03.120Z,92.04
2022-11-24T17:20:06.342Z,91.57
2022-11-24T17:23:09.424Z,91.62
2022-11-24T17:26:13.972Z,91.39
2022-11-24T17:29:17.230Z,92.41
2022-11-24T17:32:19.892Z,91.73
2022-11-24T17:35:22.505Z,92.24
2022-11-24T17:38:25.211Z,91.14
2022-11-24T17:41:28.047Z,91.73
2022-11-24T17:44:33.225Z,92.53
2022-11-24T17:47:36.151Z,91.54
2022-11-24T17:50:38.789Z,91.42
2022-11-24T17:53:43.054Z,91.92
2022-11-24T17:56:47.068Z,91.72
2022-11-24T17:59:53.173Z,91.69
2022-11-24T18:02:57.700Z,91.73
2022-11-24T18:06:10.971Z,91.92
2022-11-24T18:09:13.928Z,91.28
2022-11-24T18:12:16.508Z,91.93
2022-11-24T18:15:19.251Z,91.51
2022-11-24T18:18:21.702Z,91.60
2022-11-24T18:21:24.920Z,91.72
2022-11-24T18:24:27.540Z,91.66
2022-11-24T18:27:30.191Z,92.43
2022-11-24T18:30:32.943Z,91.56
2022-11-24T18:33:39.745Z,91.41
2022-11-24T18:36:44.956Z,92.08
2022-11-24T18:39:47.560Z,91.95
2022-11-24T18:42:50.263Z,92.06
2022-11-24T18:45:54.054Z,91.89
2022-11-24T18:48:57.056Z,91.78
2022-11-24T18:51:59.631Z,92.51
2022-11-24T18:55:04.069Z,91.84
2022-11-24T18:58:06.725Z,91.81
2022-11-24T19:01:11.947Z,91.91
2022-11-24T19:04:15.305Z,91.33
2022-11-24T19:07:20.481Z,91.73
2022-11-24T19:10:23.370Z,91.49
2022-11-24T19:13:26.098Z,92.18
2022-11-24T19:16:29.208Z,91.92
2022-11-24T19:19:34.293Z,92.12
2022-11-24T19:22:37.263Z,91.66
2022-11-24T19:25:39.973Z,91.66
2022-11-24T19:28:42.639Z,91.43
2022-11-24T19:31:47.115Z,91.77
2022-11-24T19:34:49.909Z,91.88
2022-11-24T19:37:52.887Z,91.75
2022-11-24T19:41:04.058Z,91.73
2022-11-24T19:44:08.349Z,91.56
2022-11-24T19:47:11.174Z,92.73
2022-11-24T19:50:16.580Z,92.87
2022-11-24T19:53:19.431Z,92.79
2022-11-24T19:56:24.187Z,92.17
2022-11-24T19:59:27.695Z,92.72
2022-11-24T20:02:31.758Z,91.45
2022-11-24T20:05:34.491Z,91.30
2022-11-24T20:08:38.338Z,91.90
2022-11-24T20:11:41.167Z,92.69
2022-11-24T20:14:43.885Z,92.29
2022-11-24T20:17:46.609Z,91.17
2022-11-24T20:20:49.112Z,91.73
2022-11-24T20:23:55.192Z,89.54
2022-11-24T20:26:58.976Z,88.79
2022-11-24T20:30:01.823Z,89.49
2022-11-24T20:33:05.521Z,89.96
2022-11-24T20:36:13.633Z,90.83
2022-11-24T20:39:18.935Z,91.40
2022-11-24T20:42:21.947Z,91.52
2022-11-24T20:45:24.751Z,90.91
2022-11-24T20:48:27.627Z,89.59
2022-11-24T20:51:33.160Z,90.99
2022-11-24T20:54:36.480Z,91.41
2022-11-24T20:57:39.486Z,90.77
2022-11-24T21:00:42.229Z,89.81
2022-11-24T21:03:46.497Z,89.31
2022-11-24T21:06:49.293Z,88.55
2022-11-24T21:09:52.494Z,89.68
2022-11-24T21:12:55.106Z,89.91
2022-11-24T21:15:57.819Z,89.84
2022-11-24T21:19:02.557Z,89.60
2022-11-24T21:22:05.028Z,90.17
2022-11-24T21:25:08.125Z,91.10
2022-11-24T21:28:10.625Z,91.66
2022-11-24T21:31:16.420Z,90.51
2022-11-24T21:34:19.525Z,89.39
2022-11-24T21:37:22.206Z,90.28
2022-11-24T21:40:25.225Z,89.58
2022-11-24T21:43:29.752Z,89.16
2022-11-24T21:46:38.965Z,89.76
2022-11-24T21:49:45.022Z,88.78
2022-11-24T21:52:47.519Z,89.36
2022-11-24T21:56:00.668Z,89.52
2022-11-24T21:59:03.527Z,90.21
2022-11-24T22:02:10.278Z,89.42
2022-11-24T22:05:15.532Z,89.08
2022-11-24T22:08:17.932Z,89.70
2022-11-24T22:11:22.785Z,90.48
2022-11-24T22:14:25.485Z,89.78
2022-11-24T22:17:30.912Z,89.95
2022-11-24T22:20:33.329Z,89.72
2022-11-24T22:23:36.332Z,90.16
2022-11-24T22:26:38.720Z,90.66
2022-11-24T22:29:41.305Z,91.26
2022-11-24T22:32:43.810Z,91.10
2022-11-24T22:35:55.767Z,90.56
2022-11-24T22:39:03.480Z,90.88
2022-11-24T22:42:05.886Z,91.31
2022-11-24T22:45:08.862Z,91.14
2022-11-24T22:48:11.309Z,91.28
2022-11-24T22:51:18.428Z,92.26
2022-11-24T22:54:20.883Z,91.52
2022-11-24T22:57:23.337Z,91.09
2022-11-24T23:00:26.952Z,91.79
2022-11-24T23:03:29.469Z,91.07
2022-11-24T23:06:32.815Z,91.10
2022-11-24T23:09:35.265Z,92.28
2022-11-24T23:12:37.656Z,92.10
2022-11-24T23:15:40.101Z,92.18
2022-11-24T23:18:43.380Z,92.32
2022-11-24T23:21:45.861Z,92.83
2022-11-24T23:24:48.395Z,92.33
2022-11-24T23:27:50.931Z,92.75
2022-11-24T23:30:53.538Z,92.22
2022-11-24T23:33:58.007Z,92.22
2022-11-24T23:37:00.405Z,92.42
2022-11-24T23:40:02.933Z,91.69
2022-11-24T23:43:05.293Z,91.87
2022-11-24T23:46:12.911Z,92.19
2022-11-24T23:49:15.369Z,92.37
2022-11-24T23:52:17.878Z,91.35
2022-11-24T23:55:20.448Z,91.82
2022-11-24T23:58:23.155Z,91.82
